Map

Track Data

SID SEASON NUMBER BASIN SUBBASIN NAME ISO_TIME NATURE LAT LON WMO_WIND WMO_PRES WMO_AGENCY TRACK_TYPE DIST2LAND LANDFALL IFLAG USA_AGENCY USA_ATCF_ID USA_LAT USA_LON USA_RECORD USA_STATUS USA_WIND USA_PRES USA_SSHS USA_R34_NE USA_R34_SE USA_R34_SW USA_R34_NW USA_R50_NE USA_R50_SE USA_R50_SW USA_R50_NW USA_R64_NE USA_R64_SE USA_R64_SW USA_R64_NW USA_POCI USA_ROCI USA_RMW USA_EYE TOKYO_LAT TOKYO_LON TOKYO_GRADE TOKYO_WIND TOKYO_PRES TOKYO_R50_DIR TOKYO_R50_LONG TOKYO_R50_SHORT TOKYO_R30_DIR TOKYO_R30_LONG TOKYO_R30_SHORT TOKYO_LAND CMA_LAT CMA_LON CMA_CAT CMA_WIND CMA_PRES HKO_LAT HKO_LON HKO_CAT HKO_WIND HKO_PRES NEWDELHI_LAT NEWDELHI_LON NEWDELHI_GRADE NEWDELHI_WIND NEWDELHI_PRES NEWDELHI_CI NEWDELHI_DP NEWDELHI_POCI REUNION_LAT REUNION_LON REUNION_TYPE REUNION_WIND REUNION_PRES REUNION_TNUM REUNION_CI REUNION_RMW REUNION_R34_NE REUNION_R34_SE REUNION_R34_SW REUNION_R34_NW REUNION_R50_NE REUNION_R50_SE REUNION_R50_SW REUNION_R50_NW REUNION_R64_NE REUNION_R64_SE REUNION_R64_SW REUNION_R64_NW BOM_LAT BOM_LON BOM_TYPE BOM_WIND BOM_PRES BOM_TNUM BOM_CI BOM_RMW BOM_R34_NE BOM_R34_SE BOM_R34_SW BOM_R34_NW BOM_R50_NE BOM_R50_SE BOM_R50_SW BOM_R50_NW BOM_R64_NE BOM_R64_SE BOM_R64_SW BOM_R64_NW BOM_ROCI BOM_POCI BOM_EYE BOM_POS_METHOD BOM_PRES_METHOD NADI_LAT NADI_LON NADI_CAT NADI_WIND NADI_PRES WELLINGTON_LAT WELLINGTON_LON WELLINGTON_WIND WELLINGTON_PRES DS824_LAT DS824_LON DS824_STAGE DS824_WIND DS824_PRES TD9636_LAT TD9636_LON TD9636_STAGE TD9636_WIND TD9636_PRES TD9635_LAT TD9635_LON TD9635_WIND TD9635_PRES TD9635_ROCI NEUMANN_LAT NEUMANN_LON NEUMANN_CLASS NEUMANN_WIND NEUMANN_PRES MLC_LAT MLC_LON MLC_CLASS MLC_WIND MLC_PRES USA_GUST BOM_GUST BOM_GUST_PER REUNION_GUST REUNION_GUST_PER USA_SEAHGT USA_SEARAD_NE USA_SEARAD_SE USA_SEARAD_SW USA_SEARAD_NW STORM_SPEED STORM_DIR
1870238N14310 1870 15 NA NA NOT_NAMED 1870-08-25 12:00:00 TS 14.1000 -50.1000 main 1022 1017 _____________O -1 14.1000 -50.1000 TS 45 7 295
1870238N14310 1870 15 NA NA NOT_NAMED 1870-08-25 15:00:00 TS 14.2501 -50.4374 main 1028 1015 _____________P -1 14.2501 -50.4374 TS 47 7 294
1870238N14310 1870 15 NA NA NOT_NAMED 1870-08-25 18:00:00 TS 14.4000 -50.8000 main 1022 1017 _____________O -1 14.4000 -50.8000 TS 50 8 292
1870238N14310 1870 15 NA NA NOT_NAMED 1870-08-25 21:00:00 TS 14.5500 -51.2000 main 1028 1021 _____________P -1 14.5500 -51.2000 TS 50 8 291
1870238N14310 1870 15 NA NA NOT_NAMED 1870-08-26 00:00:00 TS 14.7000 -51.6000 main 1025 1022 _____________O -1 14.7000 -51.6000 TS 50 8 292
1870238N14310 1870 15 NA NA NOT_NAMED 1870-08-26 03:00:00 TS 14.8499 -51.9501 main 1025 1025 _____________P -1 14.8499 -51.9501 TS 50 7 294
1870238N14310 1870 15 NA NA NOT_NAMED 1870-08-26 06:00:00 TS 15.0000 -52.3000 main 1040 1025 _____________O -1 15.0000 -52.3000 TS 50 8 292
1870238N14310 1870 15 NA NA NOT_NAMED 1870-08-26 09:00:00 TS 15.1500 -52.7000 main 1031 999 _____________P -1 15.1500 -52.7000 TS 50 8 291
1870238N14310 1870 15 NA NA NOT_NAMED 1870-08-26 12:00:00 TS 15.3000 -53.1000 main 999 977 _____________O -1 15.3000 -53.1000 TS 50 8 293
1870238N14310 1870 15 NA NA NOT_NAMED 1870-08-26 15:00:00 TS 15.4499 -53.4501 main 968 953 _____________P -1 15.4499 -53.4501 TS 50 7 294
1870238N14310 1870 15 NA NA NOT_NAMED 1870-08-26 18:00:00 TS 15.6000 -53.8000 main 953 924 _____________O -1 15.6000 -53.8000 TS 50 8 293
1870238N14310 1870 15 NA NA NOT_NAMED 1870-08-26 21:00:00 TS 15.7500 -54.2000 main 931 904 _____________P -1 15.7500 -54.2000 TS 52 8 291
1870238N14310 1870 15 NA NA NOT_NAMED 1870-08-27 00:00:00 TS 15.9000 -54.6000 main 904 887 _____________O -1 15.9000 -54.6000 TS 55 8 293
1870238N14310 1870 15 NA NA NOT_NAMED 1870-08-27 03:00:00 TS 16.0499 -54.9501 main 879 871 _____________P -1 16.0499 -54.9501 TS 57 7 294
1870238N14310 1870 15 NA NA NOT_NAMED 1870-08-27 06:00:00 TS 16.2000 -55.3000 main 871 849 _____________O -1 16.2000 -55.3000 TS 60 8 293
1870238N14310 1870 15 NA NA NOT_NAMED 1870-08-27 09:00:00 TS 16.3500 -55.7000 main 857 837 _____________P -1 16.3500 -55.7000 TS 60 8 291
1870238N14310 1870 15 NA NA NOT_NAMED 1870-08-27 12:00:00 TS 16.5000 -56.1000 main 837 826 _____________O -1 16.5000 -56.1000 TS 60 8 292
1870238N14310 1870 15 NA NA NOT_NAMED 1870-08-27 15:00:00 TS 16.6499 -56.4576 main 820 816 _____________P -1 16.6499 -56.4576 TS 62 7 294
1870238N14310 1870 15 NA NA NOT_NAMED 1870-08-27 18:00:00 TS 16.8000 -56.8000 main 819 811 _____________O -1 16.8000 -56.8000 HU 65 7 294
1870238N14310 1870 15 NA NA NOT_NAMED 1870-08-27 21:00:00 TS 16.9499 -57.1501 main 806 805 _____________P -1 16.9499 -57.1501 HU 67 7 294
1870238N14310 1870 15 NA NA NOT_NAMED 1870-08-28 00:00:00 TS 17.1000 -57.5000 main 810 805 _____________O -1 17.1000 -57.5000 HU 70 7 294
1870238N14310 1870 15 NA NA NOT_NAMED 1870-08-28 03:00:00 TS 17.2424 -57.8501 main 800 788 _____________P -1 17.2424 -57.8501 HU 70 7 294
1870238N14310 1870 15 NA NA NOT_NAMED 1870-08-28 06:00:00 TS 17.4000 -58.2000 main 788 754 _____________O -1 17.4000 -58.2000 HU 70 8 298
1870238N14310 1870 15 NA NA NOT_NAMED 1870-08-28 09:00:00 TS 17.5999 -58.5500 main 754 710 _____________P -1 17.5999 -58.5500 HU 72 8 301
1870238N14310 1870 15 NA NA NOT_NAMED 1870-08-28 12:00:00 TS 17.8000 -58.9000 main 710 677 _____________O -1 17.8000 -58.9000 HU 75 8 298
1870238N14310 1870 15 NA NA NOT_NAMED 1870-08-28 15:00:00 TS 17.9574 -59.2501 main 666 634 _____________P -1 17.9574 -59.2501 HU 75 7 294
1870238N14310 1870 15 NA NA NOT_NAMED 1870-08-28 18:00:00 TS 18.1000 -59.6000 main 634 602 _____________O -1 18.1000 -59.6000 HU 75 7 294
1870238N14310 1870 15 NA NA NOT_NAMED 1870-08-28 21:00:00 TS 18.2499 -59.9501 main 591 559 _____________P -1 18.2499 -59.9501 HU 75 7 294
1870238N14310 1870 15 NA NA NOT_NAMED 1870-08-29 00:00:00 TS 18.4000 -60.3000 main 559 527 _____________O -1 18.4000 -60.3000 HU 75 7 294
1870238N14310 1870 15 NA NA NOT_NAMED 1870-08-29 03:00:00 TS 18.5499 -60.6501 main 517 486 _____________P -1 18.5499 -60.6501 HU 75 7 294
1870238N14310 1870 15 NA NA NOT_NAMED 1870-08-29 06:00:00 TS 18.7000 -61.0000 main 486 455 _____________O -1 18.7000 -61.0000 HU 75 7 292
1870238N14310 1870 15 NA NA NOT_NAMED 1870-08-29 09:00:00 TS 18.8124 -61.3503 main 444 416 _____________P -1 18.8124 -61.3503 HU 77 7 294
1870238N14310 1870 15 NA NA NOT_NAMED 1870-08-29 12:00:00 TS 19.0000 -61.7000 main 416 389 _____________O -1 19.0000 -61.7000 HU 80 9 310
1870238N14310 1870 15 NA NA NOT_NAMED 1870-08-29 15:00:00 TS 19.3624 -62.0499 main 394 370 _____________P -1 19.3624 -62.0499 HU 80 10 320
1870238N14310 1870 15 NA NA NOT_NAMED 1870-08-29 18:00:00 TS 19.8000 -62.4000 main 370 350 _____________O -1 19.8000 -62.4000 HU 80 11 322
1870238N14310 1870 15 NA NA NOT_NAMED 1870-08-29 21:00:00 TS 20.1999 -62.7502 main 356 356 _____________P -1 20.1999 -62.7502 HU 80 13 22
1870238N14310 1870 15 NA NA NOT_NAMED 1870-08-30 00:00:00 TS 20.9667 -61.9000 50 hurdat_atl main 484 484 O____________O hurdat_atl AL021870 21.7000 -59.5000 TS 50 0 20.6000 -63.1000 HU 80 17 37
1870238N14310 1870 15 NA NA NOT_NAMED 1870-08-30 03:00:00 TS 21.5314 -61.6848 main 535 535 P____________P AL021870 22.0628 -59.9119 TS 50 0 21.0000 -63.4576 HU 80 11 10
1870238N14310 1870 15 NA NA NOT_NAMED 1870-08-30 06:00:00 TS 22.0000 -61.7000 50 hurdat_atl main 572 572 O____________O hurdat_atl AL021870 22.4000 -60.3000 TS 50 0 21.4000 -63.8000 HU 80 9 353
1870238N14310 1870 15 NA NA NOT_NAMED 1870-08-30 09:00:00 TS 22.3999 -61.8078 main 597 597 P____________P AL021870 22.6998 -60.6504 TS 50 0 21.8000 -64.1226 HU 80 8 331
1870238N14310 1870 15 NA NA NOT_NAMED 1870-08-30 12:00:00 TS 22.7333 -62.1333 50 hurdat_atl main 603 603 O____________O hurdat_atl AL021870 23.0000 -61.0000 TS 50 0 22.2000 -64.4000 HU 80 9 319
1870238N14310 1870 15 NA NA NOT_NAMED 1870-08-30 15:00:00 TS 23.0949 -62.4693 main 616 616 P____________P AL021870 23.3425 -61.3926 TS 50 0 22.5999 -64.6227 HU 80 10 320
1870238N14310 1870 15 NA NA NOT_NAMED 1870-08-30 18:00:00 TS 23.4667 -62.8000 50 hurdat_atl main 640 635 O____________O hurdat_atl AL021870 23.7000 -61.8000 TS 50 0 23.0000 -64.8000 HU 80 9 321
1870238N14310 1870 15 NA NA NOT_NAMED 1870-08-30 21:00:00 TS 23.8283 -63.1194 main 657 657 P____________P AL021870 24.0425 -62.2077 TS 55 0 23.3999 -64.9428 HU 80 9 322
1870238N14310 1870 15 NA NA NOT_NAMED 1870-08-31 00:00:00 TS 24.2000 -63.4333 60 hurdat_atl main 687 684 O____________O hurdat_atl AL021870 24.4000 -62.6000 TS 60 0 23.8000 -65.1000 HU 80 10 323
1870238N14310 1870 15 NA NA NOT_NAMED 1870-08-31 03:00:00 TS 24.5999 -63.7476 main 720 717 P____________P AL021870 24.7998 -62.9502 TS 60 0 24.2001 -65.3424 HU 80 10 324
1870238N14310 1870 15 NA NA NOT_NAMED 1870-08-31 06:00:00 TS 25.0000 -64.0667 60 hurdat_atl main 754 754 O____________O hurdat_atl AL021870 25.2000 -63.3000 TS 60 0 24.6000 -65.6000 HU 80 10 323
1870238N14310 1870 15 NA NA NOT_NAMED 1870-08-31 09:00:00 TS 25.3615 -64.3855 main 792 790 P____________P AL021870 25.5423 -63.6781 TS 65 1 24.9999 -65.8003 HU 82 10 321
1870238N14310 1870 15 NA NA NOT_NAMED 1870-08-31 12:00:00 TS 25.7333 -64.7333 70 hurdat_atl main 821 821 O____________O hurdat_atl AL021870 25.9000 -64.1000 HU 70 1 25.4000 -66.0000 HU 85 11 319
1870238N14310 1870 15 NA NA NOT_NAMED 1870-08-31 15:00:00 TS 26.1567 -65.1425 main 873 872 P____________P AL021870 26.3350 -64.5851 HU 70 1 25.8001 -66.2574 HU 85 11 319
1870238N14310 1870 15 NA NA NOT_NAMED 1870-08-31 18:00:00 TS 26.6000 -65.5667 70 hurdat_atl main 899 899 O____________O hurdat_atl AL021870 26.8000 -65.1000 HU 70 1 26.2000 -66.5000 HU 85 11 320
1870238N14310 1870 15 NA NA NOT_NAMED 1870-08-31 21:00:00 TS 27.0307 -65.9554 main 922 922 P____________P AL021870 27.2498 -65.6004 HU 75 1 26.5924 -66.6653 HU 85 11 322
1870238N14310 1870 15 NA NA NOT_NAMED 1870-09-01 00:00:00 TS 27.4667 -66.3333 80 hurdat_atl main 959 955 O____________O hurdat_atl AL021870 27.7000 -66.1000 HU 80 1 27.0000 -66.8000 HU 85 11 323
1870238N14310 1870 15 NA NA NOT_NAMED 1870-09-01 03:00:00 TS 27.9266 -66.7242 main 982 982 P____________P AL021870 28.1649 -66.6076 HU 80 1 27.4500 -66.9575 HU 85 11 323
1870238N14310 1870 15 NA NA NOT_NAMED 1870-09-01 06:00:00 TS 28.3667 -67.1000 80 hurdat_atl main 1000 994 O____________O hurdat_atl AL021870 28.6000 -67.1000 HU 80 1 27.9000 -67.1000 HU 85 10 322
1870238N14310 1870 15 NA NA NOT_NAMED 1870-09-01 09:00:00 TS 28.7408 -67.4562 main 1004 1004 P____________P AL021870 28.9575 -67.5804 HU 80 1 28.3075 -67.2077 HU 85 9 321
1870238N14310 1870 15 NA NA NOT_NAMED 1870-09-01 12:00:00 TS 29.1000 -67.7667 80 hurdat_atl main 1025 984 O____________O hurdat_atl AL021870 29.3000 -68.0000 HU 80 1 28.7000 -67.3000 HU 85 9 328
1870238N14310 1870 15 NA NA NOT_NAMED 1870-09-01 15:00:00 TS 29.4847 -67.9981 main 984 941 P____________P AL021870 29.6771 -68.3009 HU 80 1 29.1000 -67.3927 HU 85 9 333
1870238N14310 1870 15 NA NA NOT_NAMED 1870-09-01 18:00:00 TS 29.9000 -68.2333 80 hurdat_atl main 941 883 O____________O hurdat_atl AL021870 30.1000 -68.6000 HU 80 1 29.5000 -67.5000 HU 85 10 330
1870238N14310 1870 15 NA NA NOT_NAMED 1870-09-01 21:00:00 TS 30.3543 -68.5830 main 876 827 P____________P AL021870 30.5928 -69.0495 HU 85 2 29.8775 -67.6500 HU 87 11 327
1870238N14310 1870 15 NA NA NOT_NAMED 1870-09-02 00:00:00 TS 30.8333 -68.9333 90 hurdat_atl main 827 768 O____________O hurdat_atl AL021870 31.1000 -69.5000 HU 90 2 30.3000 -67.8000 HU 90 11 332
1870238N14310 1870 15 NA NA NOT_NAMED 1870-09-02 03:00:00 TS 31.3064 -69.1724 main 768 717 P____________P AL021870 31.5496 -69.8011 HU 90 2 30.8200 -67.9150 HU 90 10 338
1870238N14310 1870 15 NA NA NOT_NAMED 1870-09-02 06:00:00 TS 31.8000 -69.4000 90 hurdat_atl main 717 660 O____________O hurdat_atl AL021870 32.0000 -70.1000 HU 90 2 31.4000 -68.0000 HU 90 11 335
1870238N14310 1870 15 NA NA NOT_NAMED 1870-09-02 09:00:00 TS 32.3185 -69.7239 main 660 604 P____________P AL021870 32.4928 -70.5570 HU 90 2 31.9700 -68.0577 HU 90 12 333
1870238N14310 1870 15 NA NA NOT_NAMED 1870-09-02 12:00:00 TS 32.8667 -70.0333 90 hurdat_atl main 598 552 O____________O hurdat_atl AL021870 33.0000 -71.0000 HU 90 2 32.6000 -68.1000 HU 90 12 338
1870238N14310 1870 15 NA NA NOT_NAMED 1870-09-02 15:00:00 TS 33.4224 -70.2569 main 544 505 P____________P AL021870 33.4698 -71.3104 HU 90 2 33.3275 -68.1500 HU 90 12 345
1870238N14310 1870 15 NA NA NOT_NAMED 1870-09-02 18:00:00 TS 34.0333 -70.4000 90 hurdat_atl main 505 469 O____________O hurdat_atl AL021870 34.0000 -71.5000 HU 90 2 34.1000 -68.2000 HU 90 13 351
1870238N14310 1870 15 NA NA NOT_NAMED 1870-09-02 21:00:00 TS 34.7099 -70.4947 main 469 453 P____________P AL021870 34.6549 -71.6098 HU 90 2 34.8200 -68.2646 HU 90 14 357
1870238N14310 1870 15 NA NA NOT_NAMED 1870-09-03 00:00:00 TS 35.4667 -70.5000 90 hurdat_atl main 451 449 O____________O hurdat_atl AL021870 35.4000 -71.6000 HU 90 2 35.6000 -68.3000 HU 90 16 2
1870238N14310 1870 15 NA NA NOT_NAMED 1870-09-03 03:00:00 TS 36.3142 -70.4210 main 460 438 P____________P AL021870 36.1775 -71.4950 HU 90 2 36.5875 -68.2729 HU 90 17 6
1870238N14310 1870 15 NA NA NOT_NAMED 1870-09-03 06:00:00 TS 37.1667 -70.2667 90 hurdat_atl main 431 382 O____________O hurdat_atl AL021870 37.0000 -71.3000 HU 90 2 37.5000 -68.2000 HU 90 16 8
1870238N14310 1870 15 NA NA NOT_NAMED 1870-09-03 09:00:00 TS 37.8990 -70.1536 main 382 329 P____________P AL021870 37.8336 -71.1732 HU 85 2 38.0299 -68.1145 HU 87 15 12
1870238N14310 1870 15 NA NA NOT_NAMED 1870-09-03 12:00:00 TS 38.6333 -69.8667 80 hurdat_atl main 329 261 O____________O hurdat_atl AL021870 38.7000 -70.8000 HU 80 1 38.5000 -68.0000 HU 85 17 24
1870238N14310 1870 15 NA NA NOT_NAMED 1870-09-03 15:00:00 TS 39.4561 -69.2545 main 251 200 P____________P AL021870 39.5778 -69.9493 HU 80 1 39.2125 -67.8648 HU 82 20 33
1870238N14310 1870 15 NA NA NOT_NAMED 1870-09-03 18:00:00 TS 40.3333 -68.4333 80 hurdat_atl main 205 191 O____________O hurdat_atl AL021870 40.5000 -68.8000 HU 80 1 40.0000 -67.7000 HU 80 22 35
1870238N14310 1870 15 NA NA NOT_NAMED 1870-09-03 21:00:00 TS 41.2640 -67.5949 main 204 175 P____________P AL021870 41.5210 -67.6242 HU 80 1 40.7498 -67.5363 HU 80 23 36
1870238N14310 1870 15 NA NA NOT_NAMED 1870-09-04 00:00:00 TS 42.1667 -66.6333 80 hurdat_atl main 161 66 O____________O hurdat_atl AL021870 42.5000 -66.3000 HU 80 1 41.5000 -67.3000 HU 80 972 23 42
1870238N14310 1870 15 NA NA NOT_NAMED 1870-09-04 03:00:00 TS 42.9472 -65.5756 main 67 27 P____________P AL021870 43.2922 -64.8838 HU 80 1 42.2573 -66.9592 HU 80 22 48
1870238N14310 1870 15 NA NA NOT_NAMED 1870-09-04 06:00:00 TS 43.6667 -64.3667 80 hurdat_atl main 33 23 O____________O hurdat_atl AL021870 44.0000 -63.3000 HU 80 1 43.0000 -66.5000 HU 80 23 52
1870238N14310 1870 15 NA NA NOT_NAMED 1870-09-04 09:00:00 TS 44.3865 -63.0476 main 32 0 P____________P AL021870 44.7429 -61.5319 HU 75 1 43.6737 -66.0790 HU 75 22 53
1870238N14310 1870 15 NA NA NOT_NAMED 1870-09-04 12:00:00 TS 45.0000 -61.8800 70 hurdat_atl main 0 0 O____________O hurdat_atl AL021870 45.4000 -59.6000 HU 70 1 44.4000 -65.3000 HU 70 20 54
1870238N14310 1870 15 NA NA NOT_NAMED 1870-09-04 15:00:00 TS 45.5728 -60.7166 main 0 0 P____________P AL021870 45.9047 -57.5762 HU 70 1 45.2409 -63.8571 HU 65 21 54
1870238N14310 1870 15 NA NA NOT_NAMED 1870-09-04 18:00:00 TS 46.2400 -59.4000 70 hurdat_atl main 30 30 O____________O hurdat_atl AL021870 46.3000 -55.5000 HU 70 1 46.2000 -62.0000 TS 60 18 15
1870238N14310 1870 15 NA NA NOT_NAMED 1870-09-04 21:00:00 TS 47.2753 -60.0350 main 58 0 _____________P AL021870 HU -1 47.2753 -60.0350 TS 52 24 24
1870238N14310 1870 15 NA NA NOT_NAMED 1870-09-05 00:00:00 TS 48.4000 -58.0000 main 0 _____________O -1 48.4000 -58.0000 TS 45 35 50

About IBTrACS Database

This database is a web-friendly format of International Best Track Archive for Climate Stewardship (IBTrACS), a global best track data archive curated by NOAA dating back to 1842.

Updated: 2021-10-08